createdAt,value
2017-08-11T00:00:13.061Z,1010.14
2017-08-11T00:01:25.632Z,1010.07
2017-08-11T00:02:38.247Z,1010.04
2017-08-11T00:03:50.885Z,1010.13
2017-08-11T00:05:03.715Z,1010.07
2017-08-11T00:06:16.322Z,1010.05
2017-08-11T00:07:28.599Z,1010.05
2017-08-11T00:08:40.823Z,1009.91
2017-08-11T00:09:53.128Z,1009.93
2017-08-11T00:11:05.394Z,1009.82
2017-08-11T00:12:17.989Z,1009.85
2017-08-11T00:13:30.300Z,1009.73
2017-08-11T00:14:42.532Z,1009.75
2017-08-11T00:15:54.514Z,1009.68
2017-08-11T00:17:07.100Z,1009.61
2017-08-11T00:18:19.734Z,1009.51
2017-08-11T00:19:31.690Z,1009.45
2017-08-11T00:20:43.932Z,1009.31
2017-08-11T00:21:56.572Z,1009.34
2017-08-11T00:23:09.178Z,1009.24
2017-08-11T00:24:21.464Z,1009.25
2017-08-11T00:25:33.782Z,1009.16
2017-08-11T00:26:46.079Z,1009.24
2017-08-11T00:27:58.373Z,1009.19
2017-08-11T00:29:10.939Z,1009.18
2017-08-11T00:30:23.217Z,1009.24
2017-08-11T00:31:35.863Z,1009.06
2017-08-11T00:32:48.462Z,1009.14
2017-08-11T00:34:01.105Z,1009.19
2017-08-11T00:35:13.726Z,1009.1
2017-08-11T00:36:26.328Z,1009.05
2017-08-11T00:37:38.929Z,1009.1
2017-08-11T00:38:51.537Z,1009.12
2017-08-11T00:40:04.160Z,1009.19
2017-08-11T00:41:16.432Z,1009.19
2017-08-11T00:42:28.706Z,1009.16
2017-08-11T00:43:41.233Z,1009.11
2017-08-11T00:44:53.800Z,1009.08
2017-08-11T00:46:06.101Z,1009.02
2017-08-11T00:47:18.684Z,1008.99
2017-08-11T00:48:30.663Z,1008.94
2017-08-11T00:49:43.231Z,1008.82
2017-08-11T00:50:55.448Z,1008.79
2017-08-11T00:52:08.043Z,1008.81
2017-08-11T00:53:20.626Z,1008.82
2017-08-11T00:54:33.217Z,1008.8
2017-08-11T00:55:45.508Z,1008.81
2017-08-11T00:56:58.069Z,1008.81
2017-08-11T00:58:10.362Z,1008.82
2017-08-11T00:59:22.693Z,1008.77
2017-08-11T01:00:35.250Z,1008.74
2017-08-11T01:01:47.811Z,1008.74
2017-08-11T01:03:00.412Z,1008.68
2017-08-11T01:04:12.727Z,1008.62
2017-08-11T01:05:25.504Z,1008.6
2017-08-11T01:06:37.736Z,1008.54
2017-08-11T01:07:49.996Z,1008.5
2017-08-11T01:09:02.306Z,1008.61
2017-08-11T01:10:14.843Z,1008.41
2017-08-11T01:11:26.882Z,1008.53
2017-08-11T01:12:39.451Z,1008.46
2017-08-11T01:13:51.738Z,1008.46
2017-08-11T01:15:04.308Z,1008.43
2017-08-11T01:16:16.842Z,1008.4
2017-08-11T01:17:29.407Z,1008.34
2017-08-11T01:18:41.733Z,1008.35
2017-08-11T01:19:54.324Z,1008.34
2017-08-11T01:21:07.195Z,1008.32
2017-08-11T01:22:19.816Z,1008.4
2017-08-11T01:23:32.122Z,1008.35
2017-08-11T01:24:44.721Z,1008.29
2017-08-11T01:25:57.327Z,1008.2
2017-08-11T01:27:09.936Z,1008.19
2017-08-11T01:28:22.569Z,1008.02
2017-08-11T01:29:34.892Z,1007.98
2017-08-11T01:30:47.444Z,1008.01
2017-08-11T01:32:00.058Z,1007.95
2017-08-11T01:33:12.697Z,1007.84
2017-08-11T01:34:25.303Z,1007.85
2017-08-11T01:35:37.545Z,1007.85
2017-08-11T01:36:49.825Z,1007.78
2017-08-11T01:38:02.127Z,1007.82
2017-08-11T01:39:14.722Z,1007.84
2017-08-11T01:40:27.029Z,1007.81
2017-08-11T01:41:39.644Z,1007.9
2017-08-11T01:42:52.227Z,1007.98
2017-08-11T01:44:04.835Z,1008.09
2017-08-11T01:45:17.374Z,1008.17
2017-08-11T01:46:29.991Z,1007.94
2017-08-11T01:47:42.557Z,1007.72
2017-08-11T01:48:54.855Z,1007.59
2017-08-11T01:50:07.485Z,1007.55
2017-08-11T01:51:20.136Z,1007.45
2017-08-11T01:52:32.747Z,1007.46
2017-08-11T01:53:45.561Z,1007.41
2017-08-11T01:54:57.549Z,1007.38
2017-08-11T01:56:10.145Z,1007.45
2017-08-11T01:57:22.703Z,1007.39
2017-08-11T01:58:34.980Z,1007.44
2017-08-11T01:59:47.265Z,1007.45
2017-08-11T02:00:59.872Z,1007.44
2017-08-11T02:02:12.136Z,1007.4
2017-08-11T02:03:24.664Z,1007.41
2017-08-11T02:04:36.998Z,1007.33
2017-08-11T02:05:49.626Z,1007.37
2017-08-11T02:07:02.260Z,1007.38
2017-08-11T02:08:14.848Z,1007.26
2017-08-11T02:09:27.157Z,1007.26
2017-08-11T02:10:39.440Z,1007.29
2017-08-11T02:11:52.033Z,1007.3
2017-08-11T02:13:04.647Z,1007.22
2017-08-11T02:14:17.233Z,1007.23
2017-08-11T02:15:29.524Z,1007.2
2017-08-11T02:16:42.082Z,1007.17
2017-08-11T02:17:54.651Z,1007.25
2017-08-11T02:19:07.205Z,1007.29
2017-08-11T02:20:19.770Z,1007.32
2017-08-11T02:21:32.293Z,1007.35
2017-08-11T02:22:44.862Z,1007.27
2017-08-11T02:23:57.486Z,1007.21
2017-08-11T02:25:09.496Z,1007.19
2017-08-11T02:26:22.116Z,1007.16
2017-08-11T02:27:34.110Z,1007.28
2017-08-11T02:28:46.718Z,1007.27
2017-08-11T02:29:59.244Z,1007.3
2017-08-11T02:31:11.518Z,1007.28
2017-08-11T02:32:24.117Z,1007.3
2017-08-11T02:33:36.676Z,1007.31
2017-08-11T02:34:48.928Z,1007.34
2017-08-11T02:36:01.553Z,1007.3
2017-08-11T02:37:14.412Z,1007.26
2017-08-11T02:38:27.002Z,1007.24
2017-08-11T02:39:39.292Z,1007.21
2017-08-11T02:40:51.305Z,1007.27
2017-08-11T02:42:03.882Z,1007.31
2017-08-11T02:43:15.844Z,1007.35
2017-08-11T02:44:28.140Z,1007.34
2017-08-11T02:45:40.436Z,1007.33
2017-08-11T02:46:53.092Z,1007.33
2017-08-11T02:48:05.651Z,1007.34
2017-08-11T02:49:17.648Z,1007.38
2017-08-11T02:50:30.212Z,1007.37
2017-08-11T02:51:41.814Z,1007.41
2017-08-11T02:52:54.084Z,1007.41
2017-08-11T02:54:06.662Z,1007.48
2017-08-11T02:55:18.963Z,1007.53
2017-08-11T02:56:31.309Z,1007.47
2017-08-11T02:57:43.918Z,1007.5
2017-08-11T02:58:56.822Z,1007.54
2017-08-11T03:00:09.148Z,1007.55
2017-08-11T03:01:21.760Z,1007.55
2017-08-11T03:02:34.340Z,1007.51
2017-08-11T03:03:46.906Z,1007.55
2017-08-11T03:04:59.183Z,1007.6
2017-08-11T03:06:11.806Z,1007.55
2017-08-11T03:07:24.452Z,1007.5
2017-08-11T03:08:37.059Z,1007.53
2017-08-11T03:09:49.627Z,1007.53
2017-08-11T03:11:01.525Z,1007.56
2017-08-11T03:12:13.819Z,1007.6
2017-08-11T03:13:26.122Z,1007.59
2017-08-11T03:14:38.693Z,1007.51
2017-08-11T03:15:51.358Z,1007.54
2017-08-11T03:17:03.928Z,1007.52
2017-08-11T03:18:15.906Z,1007.54
2017-08-11T03:19:27.955Z,1007.55
2017-08-11T03:20:39.898Z,1007.55
2017-08-11T03:21:52.173Z,1007.53
2017-08-11T03:23:04.734Z,1007.47
2017-08-11T03:24:17.330Z,1007.43
2017-08-11T03:25:29.651Z,1007.39
2017-08-11T03:26:42.196Z,1007.39
2017-08-11T03:27:54.467Z,1007.34
2017-08-11T03:29:06.974Z,1007.36
2017-08-11T03:30:19.325Z,1007.29
2017-08-11T03:31:31.982Z,1007.25
2017-08-11T03:32:44.256Z,1007.26
2017-08-11T03:33:56.847Z,1007.25
2017-08-11T03:35:09.153Z,1007.3
2017-08-11T03:36:21.744Z,1007.3
2017-08-11T03:37:34.327Z,1007.29
2017-08-11T03:38:46.616Z,1007.24
2017-08-11T03:39:58.924Z,1007.19
2017-08-11T03:41:11.207Z,1007.15
2017-08-11T03:42:23.173Z,1007.18
2017-08-11T03:43:35.506Z,1007.18
2017-08-11T03:44:48.111Z,1007.14
2017-08-11T03:46:00.765Z,1007.11
2017-08-11T03:47:13.000Z,1007.07
2017-08-11T03:48:25.314Z,1007.09
2017-08-11T03:49:37.652Z,1007.07
2017-08-11T03:50:50.264Z,1007.1
2017-08-11T03:52:02.233Z,1007.07
2017-08-11T03:53:14.868Z,1007.04
2017-08-11T03:54:27.466Z,1007
2017-08-11T03:55:40.035Z,1007
2017-08-11T03:56:52.680Z,1007
2017-08-11T03:58:04.994Z,1006.93
2017-08-11T03:59:17.253Z,1006.99
2017-08-11T04:00:29.512Z,1007.02
2017-08-11T04:01:42.138Z,1007.02
2017-08-11T04:02:54.699Z,1007.03
2017-08-11T04:04:07.351Z,1007.05
2017-08-11T04:05:19.946Z,1007.1
2017-08-11T04:06:32.242Z,1007.15
2017-08-11T04:07:44.524Z,1007.13
2017-08-11T04:08:57.110Z,1007.19
2017-08-11T04:10:09.159Z,1007.18
2017-08-11T04:11:21.400Z,1007.22
2017-08-11T04:12:33.959Z,1007.23
2017-08-11T04:13:46.522Z,1007.26
2017-08-11T04:14:59.141Z,1007.29
2017-08-11T04:16:11.821Z,1007.32
2017-08-11T04:17:24.110Z,1007.25
2017-08-11T04:18:36.794Z,1007.24
2017-08-11T04:19:49.369Z,1007.25
2017-08-11T04:21:01.637Z,1007.29
2017-08-11T04:22:13.895Z,1007.23
2017-08-11T04:23:26.464Z,1007.15
2017-08-11T04:24:38.774Z,1007.17
2017-08-11T04:25:51.222Z,1007.15
2017-08-11T04:27:03.798Z,1007.11
2017-08-11T04:28:16.425Z,1007.12
2017-08-11T04:29:29.059Z,1007.07
2017-08-11T04:30:41.680Z,1007.06
2017-08-11T04:31:54.225Z,1007.1
2017-08-11T04:33:06.796Z,1007.07
2017-08-11T04:34:19.391Z,1007.07
2017-08-11T04:35:31.720Z,1007.06
2017-08-11T04:36:44.620Z,1007.04
2017-08-11T04:37:57.262Z,1007.03
2017-08-11T04:39:09.224Z,1007.03
2017-08-11T04:40:21.447Z,1006.97
2017-08-11T04:41:34.065Z,1007.02
2017-08-11T04:42:46.320Z,1007.04
2017-08-11T04:43:58.870Z,1007
2017-08-11T04:45:10.904Z,1007.03
2017-08-11T04:46:23.505Z,1007
2017-08-11T04:47:36.147Z,1007.01
2017-08-11T04:48:48.369Z,1007
2017-08-11T04:50:00.931Z,1006.99
2017-08-11T04:51:13.196Z,1006.92
2017-08-11T04:52:25.807Z,1006.93
2017-08-11T04:53:38.352Z,1006.91
2017-08-11T04:54:50.582Z,1006.88
2017-08-11T04:56:03.199Z,1006.91
2017-08-11T04:57:15.481Z,1006.92
2017-08-11T04:58:27.459Z,1006.89
2017-08-11T04:59:40.059Z,1006.86
2017-08-11T05:00:52.301Z,1006.88
2017-08-11T05:02:04.914Z,1006.86
2017-08-11T05:03:17.126Z,1006.86
2017-08-11T05:04:29.712Z,1006.9
2017-08-11T05:05:42.347Z,1006.92
2017-08-11T05:06:54.657Z,1006.89
2017-08-11T05:08:07.001Z,1006.92
2017-08-11T05:09:19.352Z,1006.93
2017-08-11T05:10:31.700Z,1006.95
2017-08-11T05:11:44.267Z,1006.96
2017-08-11T05:12:56.810Z,1007.03
2017-08-11T05:14:09.374Z,1007.02
2017-08-11T05:15:21.933Z,1007.03
2017-08-11T05:16:34.554Z,1006.97
2017-08-11T05:17:46.898Z,1007
2017-08-11T05:18:59.475Z,1007
2017-08-11T05:20:12.036Z,1007
2017-08-11T05:21:24.284Z,1007.03
2017-08-11T05:22:36.565Z,1006.95
2017-08-11T05:23:48.850Z,1006.97
2017-08-11T05:25:01.371Z,1006.95
2017-08-11T05:26:13.917Z,1006.94
2017-08-11T05:27:26.239Z,1006.98
2017-08-11T05:28:38.587Z,1006.99
2017-08-11T05:29:50.906Z,1007.04
2017-08-11T05:31:03.149Z,1007.02
2017-08-11T05:32:15.695Z,1007.01
2017-08-11T05:33:27.639Z,1006.94
2017-08-11T05:34:39.937Z,1006.97
2017-08-11T05:35:52.185Z,1006.95
2017-08-11T05:37:04.505Z,1006.99
2017-08-11T05:38:17.161Z,1007.01
2017-08-11T05:39:29.161Z,1007.03
2017-08-11T05:40:41.816Z,1007.03
2017-08-11T05:41:54.411Z,1006.97
2017-08-11T05:43:06.136Z,1006.94
2017-08-11T05:44:18.441Z,1006.89
2017-08-11T05:45:31.073Z,1006.83
2017-08-11T05:46:43.676Z,1006.86
2017-08-11T05:47:55.948Z,1006.83
2017-08-11T05:49:08.227Z,1006.78
2017-08-11T05:50:20.238Z,1006.83
2017-08-11T05:51:32.517Z,1006.8
2017-08-11T05:52:45.107Z,1006.79
2017-08-11T05:53:57.655Z,1006.77
2017-08-11T05:55:10.231Z,1006.75
2017-08-11T05:56:22.250Z,1006.75
2017-08-11T05:57:34.915Z,1006.78
2017-08-11T05:58:47.455Z,1006.78
2017-08-11T06:00:00.067Z,1006.78
2017-08-11T06:01:12.698Z,1006.84
2017-08-11T06:02:25.277Z,1006.86
2017-08-11T06:03:37.871Z,1006.88
2017-08-11T06:04:50.128Z,1006.86
2017-08-11T06:06:02.749Z,1006.89
2017-08-11T06:07:15.328Z,1006.93
2017-08-11T06:08:27.880Z,1006.92
2017-08-11T06:09:40.179Z,1006.94
2017-08-11T06:10:52.388Z,1006.92
2017-08-11T06:12:04.354Z,1006.87
2017-08-11T06:13:16.946Z,1006.89
2017-08-11T06:14:28.980Z,1006.9
2017-08-11T06:15:41.550Z,1006.89
2017-08-11T06:16:53.800Z,1006.87
2017-08-11T06:18:06.081Z,1006.86
2017-08-11T06:19:18.700Z,1006.86
2017-08-11T06:20:30.997Z,1006.85
2017-08-11T06:21:43.590Z,1006.84
2017-08-11T06:22:56.156Z,1006.86
2017-08-11T06:24:08.464Z,1006.8
2017-08-11T06:25:21.069Z,1006.83
2017-08-11T06:26:33.665Z,1006.79
2017-08-11T06:27:45.644Z,1006.79
2017-08-11T06:28:57.970Z,1006.81
2017-08-11T06:30:10.530Z,1006.78
2017-08-11T06:31:22.458Z,1006.8
2017-08-11T06:32:35.069Z,1006.86
2017-08-11T06:33:47.324Z,1006.9
2017-08-11T06:34:59.665Z,1006.91
2017-08-11T06:36:11.971Z,1006.91
2017-08-11T06:37:24.526Z,1006.87
2017-08-11T06:38:36.771Z,1006.89
2017-08-11T06:39:49.072Z,1006.96
2017-08-11T06:41:01.638Z,1007.03
2017-08-11T06:42:14.445Z,1007.02
2017-08-11T06:43:26.737Z,1007.01
2017-08-11T06:44:39.349Z,1007.08
2017-08-11T06:45:51.605Z,1007.13
2017-08-11T06:47:03.585Z,1007.21
2017-08-11T06:48:16.089Z,1007.22
2017-08-11T06:49:28.390Z,1007.19
2017-08-11T06:50:40.684Z,1007.23
2017-08-11T06:51:53.012Z,1007.27
2017-08-11T06:53:05.321Z,1007.33
2017-08-11T06:54:17.610Z,1007.33
2017-08-11T06:55:30.170Z,1007.33
2017-08-11T06:56:42.828Z,1007.28
2017-08-11T06:57:55.408Z,1007.32
2017-08-11T06:59:07.752Z,1007.26
2017-08-11T07:00:20.297Z,1007.25
2017-08-11T07:01:32.893Z,1007.21
2017-08-11T07:02:45.157Z,1007.23
2017-08-11T07:03:57.796Z,1007.24
2017-08-11T07:05:10.091Z,1007.25
2017-08-11T07:06:22.644Z,1007.21
2017-08-11T07:07:34.925Z,1007.3
2017-08-11T07:08:47.479Z,1007.32
2017-08-11T07:10:00.100Z,1007.33
2017-08-11T07:11:12.317Z,1007.31
2017-08-11T07:12:24.568Z,1007.32
2017-08-11T07:13:36.555Z,1007.34
2017-08-11T07:14:49.081Z,1007.27
2017-08-11T07:16:01.661Z,1007.22
2017-08-11T07:17:13.932Z,1007.21
2017-08-11T07:18:26.497Z,1007.18
2017-08-11T07:19:39.349Z,1007.2
2017-08-11T07:20:51.948Z,1007.2
2017-08-11T07:22:04.198Z,1007.18
2017-08-11T07:23:16.170Z,1007.13
2017-08-11T07:24:28.822Z,1007.08
2017-08-11T07:25:41.143Z,1007.05
2017-08-11T07:26:53.422Z,1006.99
2017-08-11T07:28:05.678Z,1006.93
2017-08-11T07:29:18.250Z,1006.92
2017-08-11T07:30:30.506Z,1006.86
2017-08-11T07:31:43.173Z,1006.89
2017-08-11T07:32:55.187Z,1006.87
2017-08-11T07:34:07.688Z,1006.89
2017-08-11T07:35:20.329Z,1006.91
2017-08-11T07:36:32.881Z,1006.86
2017-08-11T07:37:45.497Z,1006.82
2017-08-11T07:38:57.717Z,1006.8
2017-08-11T07:40:09.637Z,1006.8
2017-08-11T07:41:21.940Z,1006.78
2017-08-11T07:42:33.629Z,1006.87
2017-08-11T07:43:45.268Z,1006.92
2017-08-11T07:44:57.592Z,1006.96
2017-08-11T07:46:10.178Z,1007.05
2017-08-11T07:47:22.856Z,1007.02
2017-08-11T07:48:35.063Z,1006.99
2017-08-11T07:49:47.636Z,1006.96
2017-08-11T07:51:00.237Z,1007
2017-08-11T07:52:12.847Z,1007.04
2017-08-11T07:53:25.169Z,1007.08
2017-08-11T07:54:37.713Z,1007.18
2017-08-11T07:55:50.260Z,1007.21
2017-08-11T07:57:02.224Z,1007.24
2017-08-11T07:58:14.506Z,1007.32
2017-08-11T07:59:26.776Z,1007.35
2017-08-11T08:00:39.086Z,1007.32
2017-08-11T08:01:51.382Z,1007.38
2017-08-11T08:03:04.209Z,1007.39
2017-08-11T08:04:16.823Z,1007.48
2017-08-11T08:05:29.144Z,1007.44
2017-08-11T08:06:41.729Z,1007.42
2017-08-11T08:07:54.351Z,1007.41
2017-08-11T08:09:06.965Z,1007.46
2017-08-11T08:10:19.291Z,1007.45
2017-08-11T08:11:31.887Z,1007.37
2017-08-11T08:12:44.128Z,1007.4
2017-08-11T08:13:56.778Z,1007.34
2017-08-11T08:15:08.771Z,1007.43
2017-08-11T08:16:21.106Z,1007.5
2017-08-11T08:17:33.728Z,1007.52
2017-08-11T08:18:46.363Z,1007.55
2017-08-11T08:19:58.664Z,1007.59
2017-08-11T08:21:10.950Z,1007.62
2017-08-11T08:22:23.598Z,1007.6
2017-08-11T08:23:35.323Z,1007.59
2017-08-11T08:24:47.862Z,1007.67
2017-08-11T08:26:00.440Z,1007.66
2017-08-11T08:27:12.762Z,1007.63
2017-08-11T08:28:25.390Z,1007.63
2017-08-11T08:29:37.676Z,1007.64
2017-08-11T08:30:50.016Z,1007.64
2017-08-11T08:32:02.598Z,1007.67
2017-08-11T08:33:14.916Z,1007.73
2017-08-11T08:34:27.529Z,1007.71
2017-08-11T08:35:40.106Z,1007.72
2017-08-11T08:36:52.787Z,1007.74
2017-08-11T08:38:05.067Z,1007.77
2017-08-11T08:39:16.745Z,1007.76
2017-08-11T08:40:29.370Z,1007.79
2017-08-11T08:41:41.964Z,1007.79
2017-08-11T08:42:54.592Z,1007.79
2017-08-11T08:44:06.847Z,1007.8
2017-08-11T08:45:19.467Z,1007.81
2017-08-11T08:46:31.213Z,1007.87
2017-08-11T08:47:43.775Z,1007.93
2017-08-11T08:48:56.405Z,1007.94
2017-08-11T08:50:08.677Z,1007.91
2017-08-11T08:51:21.247Z,1007.89
2017-08-11T08:52:33.811Z,1007.91
2017-08-11T08:53:45.764Z,1007.98
2017-08-11T08:54:58.046Z,1007.93
2017-08-11T08:56:10.692Z,1007.96
2017-08-11T08:57:22.976Z,1008.02
2017-08-11T08:58:34.697Z,1008.05
2017-08-11T08:59:46.708Z,1007.97
2017-08-11T09:00:58.946Z,1007.88
2017-08-11T09:02:11.203Z,1007.99
2017-08-11T09:03:23.798Z,1008.04
2017-08-11T09:04:36.443Z,1008.06
2017-08-11T09:05:49.035Z,1008.04
2017-08-11T09:07:00.711Z,1008.08
2017-08-11T09:08:13.256Z,1008.06
2017-08-11T09:09:25.836Z,1008.09
2017-08-11T09:10:38.461Z,1008.12
2017-08-11T09:11:50.785Z,1008.09
2017-08-11T09:13:02.724Z,1008.12
2017-08-11T09:14:14.954Z,1008.19
2017-08-11T09:15:27.572Z,1008.27
2017-08-11T09:16:39.840Z,1008.42
2017-08-11T09:17:52.134Z,1008.47
2017-08-11T09:19:04.366Z,1008.39
2017-08-11T09:20:16.681Z,1008.5
2017-08-11T09:21:29.300Z,1008.53
2017-08-11T09:22:41.892Z,1008.53
2017-08-11T09:23:54.418Z,1008.47
2017-08-11T09:25:06.650Z,1008.46
2017-08-11T09:26:19.239Z,1008.44
2017-08-11T09:27:31.505Z,1008.4
2017-08-11T09:28:44.095Z,1008.48
2017-08-11T09:29:55.766Z,1008.5
2017-08-11T09:31:08.448Z,1008.49
2017-08-11T09:32:20.419Z,1008.49
2017-08-11T09:33:33.029Z,1008.5
2017-08-11T09:34:45.610Z,1008.51
2017-08-11T09:35:57.599Z,1008.48
2017-08-11T09:37:09.555Z,1008.46
2017-08-11T09:38:21.870Z,1008.33
2017-08-11T09:39:34.466Z,1008.33
2017-08-11T09:40:47.262Z,1008.33
2017-08-11T09:41:59.907Z,1008.37
2017-08-11T09:43:12.496Z,1008.33
2017-08-11T09:44:25.092Z,1008.33
2017-08-11T09:45:37.730Z,1008.34
2017-08-11T09:46:49.709Z,1008.41
2017-08-11T09:48:02.292Z,1008.45
2017-08-11T09:49:14.537Z,1008.34
2017-08-11T09:50:27.154Z,1008.38
2017-08-11T09:51:39.770Z,1008.37
2017-08-11T09:52:52.051Z,1008.38
2017-08-11T09:54:04.716Z,1008.42
2017-08-11T09:55:17.305Z,1008.42
2017-08-11T09:56:29.626Z,1008.44
2017-08-11T09:57:41.877Z,1008.44
2017-08-11T09:58:53.799Z,1008.55
2017-08-11T10:00:06.176Z,1008.57
2017-08-11T10:01:18.778Z,1008.54
2017-08-11T10:02:31.108Z,1008.66
2017-08-11T10:03:43.667Z,1008.64
2017-08-11T10:04:55.703Z,1008.68
2017-08-11T10:06:07.979Z,1008.62
2017-08-11T10:07:20.290Z,1008.64
2017-08-11T10:08:32.560Z,1008.61
2017-08-11T10:09:44.540Z,1008.64
2017-08-11T10:10:56.783Z,1008.53
2017-08-11T10:12:09.054Z,1008.49
2017-08-11T10:13:21.626Z,1008.38
2017-08-11T10:14:34.216Z,1008.34
2017-08-11T10:15:46.779Z,1008.26
2017-08-11T10:16:59.032Z,1008.24
2017-08-11T10:18:11.364Z,1008.2
2017-08-11T10:19:24.005Z,1008.15
2017-08-11T10:20:36.595Z,1008.1
2017-08-11T10:21:48.897Z,1008.07
2017-08-11T10:23:01.486Z,1007.99
2017-08-11T10:24:13.784Z,1007.99
2017-08-11T10:25:26.357Z,1008.03
2017-08-11T10:26:38.941Z,1008.02
2017-08-11T10:27:51.183Z,1008.03
2017-08-11T10:29:03.472Z,1008.05
2017-08-11T10:30:15.843Z,1007.97
2017-08-11T10:31:28.159Z,1007.98
2017-08-11T10:32:40.761Z,1007.97
2017-08-11T10:33:53.053Z,1007.9
2017-08-11T10:35:05.688Z,1007.83
2017-08-11T10:36:18.267Z,1007.77
2017-08-11T10:37:30.842Z,1007.76
2017-08-11T10:38:43.134Z,1007.77
2017-08-11T10:39:55.722Z,1007.71
2017-08-11T10:41:07.982Z,1007.68
2017-08-11T10:42:20.299Z,1007.64
2017-08-11T10:43:32.554Z,1007.62
2017-08-11T10:44:44.888Z,1007.63
2017-08-11T10:45:57.145Z,1007.62
2017-08-11T10:47:09.428Z,1007.6
2017-08-11T10:48:21.461Z,1007.74
2017-08-11T10:49:34.047Z,1007.66
2017-08-11T10:50:46.359Z,1007.49
2017-08-11T10:51:58.646Z,1007.52
2017-08-11T10:53:10.885Z,1007.82
2017-08-11T10:54:23.447Z,1007.97
2017-08-11T10:55:35.818Z,1007.93
2017-08-11T10:56:48.073Z,1007.78
2017-08-11T10:58:00.650Z,1007.83
2017-08-11T10:59:12.616Z,1007.78
2017-08-11T11:00:24.862Z,1007.49
2017-08-11T11:01:37.206Z,1007.23
2017-08-11T11:02:49.818Z,1007.26
2017-08-11T11:04:02.050Z,1007.35
2017-08-11T11:05:14.580Z,1007.27
2017-08-11T11:06:27.152Z,1007.32
2017-08-11T11:07:39.742Z,1007.25
2017-08-11T11:08:52.312Z,1007.33
2017-08-11T11:10:04.277Z,1007.39
2017-08-11T11:11:16.876Z,1007.34
2017-08-11T11:12:29.155Z,1007.15
2017-08-11T11:13:41.072Z,1007.26
2017-08-11T11:14:53.676Z,1007.15
2017-08-11T11:16:05.962Z,1007.09
2017-08-11T11:17:18.264Z,1007.04
2017-08-11T11:18:31.101Z,1007.09
2017-08-11T11:19:43.371Z,1006.99
2017-08-11T11:20:55.917Z,1006.98
2017-08-11T11:22:07.887Z,1006.97
2017-08-11T11:23:20.233Z,1006.62
2017-08-11T11:24:32.808Z,1006.67
2017-08-11T11:25:45.364Z,1006.58
2017-08-11T11:26:57.624Z,1006.55
2017-08-11T11:28:09.273Z,1006.65
2017-08-11T11:29:21.843Z,1006.69
2017-08-11T11:30:34.166Z,1006.65
2017-08-11T11:31:46.421Z,1006.61
2017-08-11T11:32:58.416Z,1006.45
2017-08-11T11:34:11.001Z,1006.46
2017-08-11T11:35:23.343Z,1006.47
2017-08-11T11:36:35.963Z,1006.6
2017-08-11T11:37:48.620Z,1006.62
2017-08-11T11:39:00.665Z,1006.87
2017-08-11T11:40:13.323Z,1007.04
2017-08-11T11:41:25.038Z,1007.1
2017-08-11T11:42:37.625Z,1007.21
2017-08-11T11:43:50.313Z,1007.42
2017-08-11T11:45:02.534Z,1007.57
2017-08-11T11:46:15.115Z,1007.52
2017-08-11T11:47:27.363Z,1007.39
2017-08-11T11:48:40.025Z,1007.38
2017-08-11T11:49:52.004Z,1007.41
2017-08-11T11:51:04.582Z,1007.66
2017-08-11T11:52:17.185Z,1007.72
2017-08-11T11:53:29.807Z,1007.72
2017-08-11T11:54:42.355Z,1007.81
2017-08-11T11:55:54.279Z,1007.88
2017-08-11T11:57:06.249Z,1007.95
2017-08-11T11:58:18.555Z,1008.04
2017-08-11T11:59:30.799Z,1008.11
2017-08-11T12:00:42.784Z,1008.16
2017-08-11T12:01:55.369Z,1008.16
2017-08-11T12:03:07.628Z,1008.12
2017-08-11T12:04:19.921Z,1008.19
2017-08-11T12:05:32.239Z,1008.19
2017-08-11T12:06:44.567Z,1008.16
2017-08-11T12:07:57.109Z,1008.14
2017-08-11T12:09:09.453Z,1008.16
2017-08-11T12:10:22.011Z,1008.17
2017-08-11T12:11:34.293Z,1008.2
2017-08-11T12:12:46.667Z,1008.17
2017-08-11T12:13:58.946Z,1008.26
2017-08-11T12:15:10.961Z,1008.2
2017-08-11T12:16:23.539Z,1008.21
2017-08-11T12:17:35.811Z,1008.24
2017-08-11T12:18:47.497Z,1008.21
2017-08-11T12:19:59.797Z,1008.24
2017-08-11T12:21:12.429Z,1008.34
2017-08-11T12:22:24.684Z,1008.47
2017-08-11T12:23:37.259Z,1008.48
2017-08-11T12:24:49.601Z,1008.46
2017-08-11T12:26:01.923Z,1008.46
2017-08-11T12:27:14.216Z,1008.63
2017-08-11T12:28:26.466Z,1008.72
2017-08-11T12:29:38.764Z,1008.74
2017-08-11T12:30:50.731Z,1008.63
2017-08-11T12:32:02.951Z,1008.72
2017-08-11T12:33:15.497Z,1008.67
2017-08-11T12:34:27.434Z,1008.73
2017-08-11T12:35:40.005Z,1008.65
2017-08-11T12:36:51.977Z,1008.65
2017-08-11T12:38:04.236Z,1008.63
2017-08-11T12:39:16.804Z,1008.61
2017-08-11T12:40:29.414Z,1008.64
2017-08-11T12:41:41.645Z,1008.59
2017-08-11T12:42:54.245Z,1008.56
2017-08-11T12:44:06.799Z,1008.59
2017-08-11T12:45:19.134Z,1008.65
2017-08-11T12:46:31.779Z,1008.61
2017-08-11T12:47:44.034Z,1008.54
2017-08-11T12:48:56.703Z,1008.53
2017-08-11T12:50:09.343Z,1008.56
2017-08-11T12:51:21.988Z,1008.5
2017-08-11T12:52:34.580Z,1008.48
2017-08-11T12:53:46.229Z,1008.39
2017-08-11T12:54:58.525Z,1008.41
2017-08-11T12:56:10.511Z,1008.35
2017-08-11T12:57:22.764Z,1008.35
2017-08-11T12:58:35.393Z,1008.3
2017-08-11T12:59:47.919Z,1008.33
2017-08-11T13:01:00.234Z,1008.29
2017-08-11T13:02:12.859Z,1008.23
2017-08-11T13:03:25.420Z,1008.23
2017-08-11T13:04:38.000Z,1008.22
2017-08-11T13:05:50.610Z,1008.25
2017-08-11T13:07:03.232Z,1008.25
2017-08-11T13:08:15.805Z,1008.32
2017-08-11T13:09:27.779Z,1008.32
2017-08-11T13:10:40.381Z,1008.25
2017-08-11T13:11:52.998Z,1008.29
2017-08-11T13:13:05.264Z,1008.34
2017-08-11T13:14:17.873Z,1008.27
2017-08-11T13:15:30.454Z,1008.11
2017-08-11T13:16:42.723Z,1008.12
2017-08-11T13:17:55.294Z,1008.06
2017-08-11T13:19:07.853Z,1008.16
2017-08-11T13:20:20.189Z,1008.3
2017-08-11T13:21:32.483Z,1008.35
2017-08-11T13:22:45.141Z,1008.29
2017-08-11T13:23:57.436Z,1008.25
2017-08-11T13:25:09.773Z,1008.11
2017-08-11T13:26:22.065Z,1008.01
2017-08-11T13:27:34.387Z,1007.8
2017-08-11T13:28:46.663Z,1007.78
2017-08-11T13:29:58.977Z,1007.48
2017-08-11T13:31:11.301Z,1007.35
2017-08-11T13:32:23.851Z,1007.26
2017-08-11T13:33:35.872Z,1007.24
2017-08-11T13:34:48.193Z,1007.29
2017-08-11T13:36:00.515Z,1007.35
2017-08-11T13:37:12.847Z,1007.4
2017-08-11T13:38:25.125Z,1007.35
2017-08-11T13:39:37.725Z,1007.17
2017-08-11T13:40:49.967Z,1007.25
2017-08-11T13:42:01.920Z,1007.32
2017-08-11T13:43:14.189Z,1007.34
2017-08-11T13:44:26.438Z,1007.46
2017-08-11T13:45:39.007Z,1007.26
2017-08-11T13:46:51.300Z,1007.15
2017-08-11T13:48:03.897Z,1007.07
2017-08-11T13:49:16.530Z,1006.97
2017-08-11T13:50:29.092Z,1006.97
2017-08-11T13:51:41.757Z,1006.88
2017-08-11T13:52:54.340Z,1006.83
2017-08-11T13:54:06.595Z,1006.76
2017-08-11T13:55:18.522Z,1006.73
2017-08-11T13:56:31.180Z,1006.67
2017-08-11T13:57:43.791Z,1006.68
2017-08-11T13:58:55.494Z,1006.62
2017-08-11T14:00:08.060Z,1006.56
2017-08-11T14:01:20.376Z,1006.61
2017-08-11T14:02:32.605Z,1006.63
2017-08-11T14:03:45.175Z,1006.7
2017-08-11T14:04:57.764Z,1006.72
2017-08-11T14:06:10.385Z,1006.71
2017-08-11T14:07:22.655Z,1006.77
2017-08-11T14:08:35.009Z,1006.66
2017-08-11T14:09:47.573Z,1006.6
2017-08-11T14:10:59.871Z,1006.57
2017-08-11T14:12:12.124Z,1006.63
2017-08-11T14:13:24.557Z,1006.63
2017-08-11T14:14:36.828Z,1006.6
2017-08-11T14:15:49.116Z,1006.61
2017-08-11T14:17:01.687Z,1006.71
2017-08-11T14:18:13.919Z,1006.87
2017-08-11T14:19:26.548Z,1006.92
2017-08-11T14:20:38.536Z,1006.88
2017-08-11T14:21:51.108Z,1006.92
2017-08-11T14:23:03.731Z,1006.95
2017-08-11T14:24:15.977Z,1006.91
2017-08-11T14:25:28.608Z,1006.79
2017-08-11T14:26:41.236Z,1006.77
2017-08-11T14:27:53.870Z,1006.81
2017-08-11T14:29:06.453Z,1006.83
2017-08-11T14:30:19.093Z,1006.78
2017-08-11T14:31:31.698Z,1006.82
2017-08-11T14:32:44.292Z,1006.83
2017-08-11T14:33:56.894Z,1006.75
2017-08-11T14:35:09.244Z,1006.73
2017-08-11T14:36:21.560Z,1006.58
2017-08-11T14:37:34.187Z,1006.48
2017-08-11T14:38:46.782Z,1006.38